Time;durP1;ratioP1;P1;durP2;ratioP2;P2;SDS_P1;SDS_P2;PMS_P1;PMS_P2;Temp;Humidity;BMP_temperature;BMP_pressure;BME280_temperature;BME280_humidity;BME280_pressure;Samples;Min_cycle;Max_cycle;Signal;HPM_P1;HPM_P2
2022/10/11 00:00:20;;;;;;;12.10;8.00;;;;;;;8.96;74.11;100713.31;85972;1298;94583;-60
2022/10/11 00:02:49;;;;;;;13.00;7.80;;;;;;;8.91;74.03;100713.62;85991;1297;78276;-61
2022/10/11 00:04:58;;;;;;;11.40;8.10;;;;;;;8.86;74.17;100713.00;85871;1294;82667;-61
2022/10/11 00:07:07;;;;;;;13.40;8.20;;;;;;;8.82;74.45;100712.70;85995;1290;99662;-61
2022/10/11 00:09:17;;;;;;;13.90;7.60;;;;;;;8.81;74.53;100711.58;85983;1291;88622;-62
2022/10/11 00:11:25;;;;;;;13.90;8.30;;;;;;;8.79;74.58;100709.67;85935;1291;95033;-61
2022/10/11 00:13:34;;;;;;;14.80;8.10;;;;;;;8.75;74.39;100706.89;85939;1299;80473;-61
2022/10/11 00:15:44;;;;;;;15.10;7.60;;;;;;;8.72;74.62;100709.40;86011;1290;82087;-60
2022/10/11 00:17:53;;;;;;;14.50;8.30;;;;;;;8.71;74.57;100706.07;85977;1291;99722;-60
2022/10/11 00:20:05;;;;;;;13.60;7.70;;;;;;;8.70;74.70;100709.42;86029;1291;88992;-60
2022/10/11 00:22:14;;;;;;;13.10;8.00;;;;;;;8.68;74.68;100710.32;85983;1291;94210;-60
2022/10/11 00:24:23;;;;;;;14.10;8.10;;;;;;;8.66;74.83;100708.36;85996;1290;80329;-61
2022/10/11 00:26:32;;;;;;;13.80;8.90;;;;;;;8.69;74.74;100707.23;86015;1291;82199;-61
2022/10/11 00:28:42;;;;;;;15.40;8.90;;;;;;;8.68;74.74;100707.83;86013;1291;98741;-61
2022/10/11 00:30:51;;;;;;;13.10;8.40;;;;;;;8.64;74.72;100709.02;86098;1297;87977;-61
2022/10/11 00:33:00;;;;;;;13.00;7.80;;;;;;;8.64;74.96;100708.61;85986;1298;95899;-61
2022/10/11 00:35:09;;;;;;;10.60;8.20;;;;;;;8.62;74.97;100710.83;85937;1298;79908;-61
2022/10/11 00:37:18;;;;;;;12.60;8.00;;;;;;;8.60;74.93;100705.89;86027;1285;81821;-62
2022/10/11 00:39:28;;;;;;;11.50;8.00;;;;;;;8.57;74.96;100706.42;86032;1290;99158;-61
2022/10/11 00:41:36;;;;;;;17.60;8.50;;;;;;;8.52;75.04;100704.90;85967;1291;88800;-60
2022/10/11 00:43:46;;;;;;;12.20;8.60;;;;;;;8.48;74.96;100710.67;85971;1291;95402;-61
2022/10/11 00:46:27;;;;;;;13.80;8.40;;;;;;;8.44;75.02;100704.84;85997;1295;81836;-60
2022/10/11 00:48:44;;;;;;;11.10;7.90;;;;;;;8.39;75.10;100705.85;85992;1290;82913;-60
2022/10/11 00:50:53;;;;;;;11.00;7.60;;;;;;;8.35;75.32;100704.06;86020;1291;100176;-61
2022/10/11 00:53:08;;;;;;;14.40;8.40;;;;;;;8.32;75.35;100702.73;85965;1292;87921;-61
2022/10/11 00:55:22;;;;;;;14.60;8.10;;;;;;;8.32;75.47;100701.64;85983;1288;93593;-62
2022/10/11 00:57:35;;;;;;;11.40;7.40;;;;;;;8.31;75.41;100694.71;86004;1291;81756;-61
2022/10/11 00:59:49;;;;;;;11.80;7.20;;;;;;;8.30;75.63;100691.09;85726;1291;383559;-62
2022/10/11 01:01:58;;;;;;;13.50;8.20;;;;;;;8.29;75.89;100691.89;85990;1297;98192;-61
2022/10/11 01:04:08;;;;;;;13.70;8.50;;;;;;;8.28;75.81;100688.75;86017;1298;87974;-62
2022/10/11 01:06:16;;;;;;;12.00;7.40;;;;;;;8.29;75.74;100685.35;86023;1291;91655;-59
2022/10/11 01:08:27;;;;;;;13.50;8.70;;;;;;;8.29;75.72;100677.91;86024;1290;80837;-60
2022/10/11 01:10:39;;;;;;;13.00;7.90;;;;;;;8.27;75.93;100683.09;86057;1291;82754;-60
2022/10/11 01:13:01;;;;;;;13.40;7.80;;;;;;;8.26;75.93;100683.38;86001;1298;97342;-61
2022/10/11 01:15:22;;;;;;;13.90;8.00;;;;;;;8.24;75.81;100679.84;86093;1298;88169;-61
2022/10/11 01:17:41;;;;;;;11.10;8.10;;;;;;;8.23;75.83;100674.79;85978;1290;93858;-60
2022/10/11 01:20:17;;;;;;;13.30;8.50;;;;;;;8.21;75.98;100675.94;86025;1291;81720;-61
2022/10/11 01:22:53;;;;;;;12.60;7.60;;;;;;;8.17;76.03;100680.50;86026;1290;82348;-59
2022/10/11 01:25:26;;;;;;;13.10;8.70;;;;;;;8.15;76.10;100675.31;86012;1298;97391;-60
2022/10/11 01:28:10;;;;;;;13.40;8.00;;;;;;;8.16;76.17;100676.46;86000;1291;88419;-61
2022/10/11 01:30:31;;;;;;;16.50;7.80;;;;;;;8.19;76.26;100675.06;85958;1292;92936;-61
2022/10/11 01:32:51;;;;;;;12.70;8.70;;;;;;;8.22;76.24;100671.80;85963;1290;82221;-61
2022/10/11 01:35:07;;;;;;;12.50;7.90;;;;;;;8.26;76.26;100670.83;85985;1297;80544;-60
2022/10/11 01:37:24;;;;;;;12.40;7.90;;;;;;;8.32;76.34;100666.45;85982;1291;99489;-61
2022/10/11 01:39:40;;;;;;;12.60;7.80;;;;;;;8.39;76.35;100662.10;85978;1297;89088;-61
2022/10/11 01:41:54;;;;;;;13.40;7.90;;;;;;;8.42;76.35;100663.16;85961;1297;94271;-61
2022/10/11 01:44:05;;;;;;;14.70;7.80;;;;;;;8.45;76.38;100662.65;85995;1291;82387;-62
2022/10/11 01:46:17;;;;;;;14.00;8.10;;;;;;;8.49;76.36;100660.97;86025;1298;82211;-60
2022/10/11 01:48:25;;;;;;;12.60;8.20;;;;;;;8.48;76.37;100664.11;85880;1293;98533;-60
2022/10/11 01:50:49;;;;;;;15.00;9.00;;;;;;;8.49;76.38;100664.42;86010;1298;88945;-61
2022/10/11 01:53:03;;;;;;;13.70;8.20;;;;;;;8.50;76.46;100664.77;85963;1287;95046;-61
2022/10/11 01:55:28;;;;;;;13.30;8.00;;;;;;;8.48;76.48;100669.69;86080;1298;78430;-61
2022/10/11 01:58:07;;;;;;;15.30;8.50;;;;;;;8.48;76.39;100669.88;86118;1297;81335;-61
2022/10/11 02:00:20;;;;;;;14.00;8.10;;;;;;;8.45;76.45;100665.02;86059;1281;98214;-62
2022/10/11 02:02:48;;;;;;;12.90;8.30;;;;;;;8.45;76.44;100664.34;86075;1290;88829;-61
2022/10/11 02:05:06;;;;;;;10.30;7.80;;;;;;;8.44;76.58;100663.17;86037;1291;94870;-62
2022/10/11 02:07:23;;;;;;;14.30;8.90;;;;;;;8.43;76.53;100662.72;85879;1291;82363;-60
2022/10/11 02:09:38;;;;;;;12.80;8.40;;;;;;;8.41;76.72;100654.83;86012;1298;80173;-61
2022/10/11 02:11:47;;;;;;;14.50;8.90;;;;;;;8.46;76.77;100657.05;85956;1291;98099;-60
2022/10/11 02:14:02;;;;;;;14.70;8.20;;;;;;;8.48;76.86;100655.85;85905;1287;86312;-60
2022/10/11 02:16:19;;;;;;;14.20;8.30;;;;;;;8.53;76.85;100653.91;85999;1291;92642;-61
2022/10/11 02:18:35;;;;;;;13.20;8.10;;;;;;;8.56;76.85;100648.90;85812;1293;81626;-60
2022/10/11 02:20:45;;;;;;;18.70;8.20;;;;;;;8.61;76.85;100649.60;85997;1291;80652;-60
2022/10/11 02:23:09;;;;;;;11.50;8.00;;;;;;;8.66;76.75;100647.73;85934;1290;98628;-60
2022/10/11 02:25:23;;;;;;;;;;;;;;;8.67;76.76;100648.66;85989;1298;88942;-61
2022/10/11 02:27:38;;;;;;;14.50;8.50;;;;;;;8.69;76.88;100651.71;86000;1291;94773;-61
2022/10/11 02:29:53;;;;;;;11.70;8.10;;;;;;;8.71;76.82;100657.09;85947;1291;80241;-61
2022/10/11 02:32:02;;;;;;;21.10;10.30;;;;;;;8.75;76.83;100653.73;85981;1298;83380;-61
2022/10/11 02:34:18;;;;;;;14.10;8.60;;;;;;;8.77;76.88;100655.42;86002;1298;98204;-61
2022/10/11 02:36:47;;;;;;;13.00;9.20;;;;;;;8.78;76.92;100651.36;86030;1292;88899;-61
2022/10/11 02:39:05;;;;;;;12.30;8.40;;;;;;;8.79;76.87;100646.23;85962;1293;94823;-60
2022/10/11 02:41:22;;;;;;;14.20;8.30;;;;;;;8.78;76.86;100649.60;86031;1291;80365;-61
2022/10/11 02:43:40;;;;;;;13.40;8.50;;;;;;;8.72;76.96;100650.76;86023;1291;83372;-61
2022/10/11 02:45:54;;;;;;;13.60;9.00;;;;;;;8.71;76.98;100650.06;86048;1291;100298;-61
2022/10/11 02:48:06;;;;;;;14.20;8.30;;;;;;;8.70;76.97;100651.54;86060;1294;89068;-61
2022/10/11 02:50:19;;;;;;;11.90;8.40;;;;;;;8.70;77.07;100653.94;86043;1291;94839;-61
2022/10/11 02:52:28;;;;;;;12.40;8.20;;;;;;;8.70;77.23;100657.20;85971;1291;82328;-61
2022/10/11 02:54:40;;;;;;;13.40;9.10;;;;;;;8.71;77.21;100657.27;86061;1298;82687;-61
2022/10/11 02:56:53;;;;;;;12.10;8.30;;;;;;;8.71;77.36;100658.67;85968;1291;97985;-62
2022/10/11 02:59:01;;;;;;;13.80;8.10;;;;;;;8.73;77.32;100654.63;85995;1298;88863;-61
2022/10/11 03:01:14;;;;;;;15.70;9.20;;;;;;;8.79;77.41;100661.35;85979;1298;94272;-61
2022/10/11 03:03:27;;;;;;;11.70;8.40;;;;;;;8.83;77.41;100661.55;85966;1290;81446;-61
2022/10/11 03:05:39;;;;;;;13.30;8.20;;;;;;;8.88;77.36;100657.09;85999;1291;81844;-60
2022/10/11 03:07:50;;;;;;;11.90;7.90;;;;;;;8.92;77.55;100659.94;85968;1291;98351;-61
2022/10/11 03:09:59;;;;;;;14.60;8.80;;;;;;;8.92;77.61;100664.92;86011;1291;88793;-61
2022/10/11 03:12:12;;;;;;;15.00;8.50;;;;;;;8.95;77.62;100670.01;85915;1291;95726;-61
2022/10/11 03:14:23;;;;;;;12.50;9.10;;;;;;;9.01;77.47;100666.55;85974;1298;81096;-61
2022/10/11 03:16:32;;;;;;;14.30;9.70;;;;;;;9.03;77.49;100668.91;85995;1291;81751;-61
2022/10/11 03:18:41;;;;;;;14.50;9.50;;;;;;;9.06;77.48;100670.69;86003;1298;99356;-61
2022/10/11 03:20:50;;;;;;;13.40;9.50;;;;;;;9.07;77.52;100670.23;86022;1290;88831;-61
2022/10/11 03:22:59;;;;;;;15.50;9.20;;;;;;;9.09;77.54;100668.14;85914;1294;94257;-61
2022/10/11 03:25:09;;;;;;;12.70;8.50;;;;;;;9.08;77.61;100671.22;86053;1290;81371;-60
2022/10/11 03:27:18;;;;;;;14.90;9.90;;;;;;;9.10;77.69;100673.27;86113;1298;82968;-61
2022/10/11 03:29:29;;;;;;;13.70;9.10;;;;;;;9.11;77.68;100677.11;86069;1289;99182;-60
2022/10/11 03:31:38;;;;;;;14.90;9.30;;;;;;;9.13;77.76;100673.66;86009;1290;89305;-61
2022/10/11 03:33:46;;;;;;;14.40;8.90;;;;;;;9.16;77.86;100678.50;86040;1291;93477;-62
2022/10/11 03:35:56;;;;;;;14.60;9.60;;;;;;;9.21;77.89;100679.58;86029;1285;81824;-60
2022/10/11 03:38:11;;;;;;;16.20;9.50;;;;;;;9.25;77.87;100682.52;85987;1290;81639;-60
2022/10/11 03:40:20;;;;;;;15.20;9.00;;;;;;;9.28;77.94;100679.71;86079;1291;98769;-61
2022/10/11 03:42:31;;;;;;;17.40;8.60;;;;;;;9.30;77.93;100680.64;85957;1291;88038;-63
2022/10/11 03:44:41;;;;;;;16.70;9.30;;;;;;;9.36;77.94;100683.92;85988;1290;94893;-58
2022/10/11 03:46:50;;;;;;;12.10;8.60;;;;;;;9.39;77.97;100683.36;85991;1298;82344;-61
2022/10/11 03:48:59;;;;;;;13.00;8.30;;;;;;;9.40;77.96;100687.45;85980;1291;82592;-60
2022/10/11 03:51:10;;;;;;;13.80;8.60;;;;;;;9.40;78.06;100689.43;85940;1299;99425;-59
2022/10/11 03:53:19;;;;;;;14.10;8.40;;;;;;;9.42;78.13;100687.38;86006;1291;86690;-60
2022/10/11 03:55:30;;;;;;;14.20;9.00;;;;;;;9.41;78.12;100685.49;85969;1298;95045;-60
2022/10/11 03:57:38;;;;;;;14.70;9.10;;;;;;;9.45;78.20;100692.45;86006;1297;80754;-60
2022/10/11 03:59:48;;;;;;;13.50;9.00;;;;;;;9.44;78.28;100691.67;86012;1292;82080;-60
2022/10/11 04:01:57;;;;;;;13.00;8.60;;;;;;;9.46;78.36;100691.88;86103;1297;99484;-60
2022/10/11 04:04:08;;;;;;;16.30;10.80;;;;;;;9.49;78.27;100688.69;86073;1298;87701;-61
2022/10/11 04:06:16;;;;;;;14.80;10.00;;;;;;;9.51;78.34;100690.84;86029;1297;97133;-61
2022/10/11 04:08:26;;;;;;;15.20;9.60;;;;;;;9.51;78.30;100689.39;85983;1286;80760;-61
2022/10/11 04:10:35;;;;;;;14.10;10.60;;;;;;;9.47;78.23;100690.39;86079;1298;82801;-61
2022/10/11 04:12:46;;;;;;;13.80;9.80;;;;;;;9.41;78.29;100694.72;86034;1298;99543;-60
2022/10/11 04:14:55;;;;;;;16.70;9.80;;;;;;;9.38;78.45;100691.57;86028;1298;88092;-60
2022/10/11 04:17:04;;;;;;;14.20;9.40;;;;;;;9.35;78.49;100695.02;85995;1292;95714;-60
2022/10/11 04:19:13;;;;;;;16.50;9.70;;;;;;;9.36;78.61;100692.77;86009;1297;80855;-60
2022/10/11 04:21:21;;;;;;;16.20;10.40;;;;;;;9.32;78.56;100694.70;86022;1298;80592;-60
2022/10/11 04:23:31;;;;;;;16.60;9.70;;;;;;;9.27;78.77;100695.81;85939;1291;99230;-60
2022/10/11 04:25:41;;;;;;;15.50;10.10;;;;;;;9.23;78.75;100700.96;86004;1291;89224;-60
2022/10/11 04:27:50;;;;;;;14.60;9.50;;;;;;;9.17;78.89;100706.41;85969;1298;93859;-59
2022/10/11 04:30:00;;;;;;;14.40;10.20;;;;;;;9.15;78.92;100705.91;85973;1298;82342;-60
2022/10/11 04:32:11;;;;;;;13.00;9.40;;;;;;;9.14;78.98;100710.02;85957;1292;82344;-60
2022/10/11 04:34:20;;;;;;;16.10;9.70;;;;;;;9.09;79.05;100713.15;85964;1297;101225;-60
2022/10/11 04:36:31;;;;;;;12.70;8.80;;;;;;;9.06;79.14;100715.79;86004;1298;89219;-59
2022/10/11 04:38:40;;;;;;;12.40;9.50;;;;;;;9.04;79.17;100717.98;85976;1298;95880;-58
2022/10/11 04:40:49;;;;;;;15.20;9.20;;;;;;;9.03;79.17;100720.29;85965;1297;82086;-60
2022/10/11 04:43:00;;;;;;;14.80;9.80;;;;;;;9.01;79.19;100726.81;86043;1297;83379;-60
2022/10/11 04:45:11;;;;;;;12.90;9.90;;;;;;;8.98;79.15;100724.83;85944;1298;100008;-61
2022/10/11 04:47:20;;;;;;;16.90;10.40;;;;;;;8.94;79.19;100722.92;86002;1291;89579;-60
2022/10/11 04:49:30;;;;;;;13.60;10.10;;;;;;;8.90;79.25;100720.77;85969;1292;93175;-60
2022/10/11 04:51:41;;;;;;;14.70;10.10;;;;;;;8.88;79.28;100724.77;86050;1298;81284;-60
2022/10/11 04:53:50;;;;;;;14.90;10.50;;;;;;;8.82;79.24;100724.50;85930;1299;82043;-60
2022/10/11 04:56:09;;;;;;;14.80;9.70;;;;;;;8.77;79.30;100723.52;86055;1298;98395;-61
2022/10/11 04:58:19;;;;;;;13.60;9.90;;;;;;;8.72;79.41;100722.14;86041;1285;88740;-60
2022/10/11 05:00:28;;;;;;;18.30;10.50;;;;;;;8.67;79.35;100723.72;86086;1298;95001;-59
2022/10/11 05:02:37;;;;;;;16.50;11.60;;;;;;;8.62;79.49;100730.21;86013;1297;82382;-59
2022/10/11 05:04:46;;;;;;;13.80;11.10;;;;;;;8.55;79.38;100730.16;86010;1298;82410;-60
2022/10/11 05:06:57;;;;;;;16.40;11.10;;;;;;;8.50;79.65;100731.94;85976;1291;99406;-61
2022/10/11 05:09:10;;;;;;;16.50;10.60;;;;;;;8.51;79.78;100736.98;85933;1291;87217;-61
2022/10/11 05:11:21;;;;;;;17.90;10.80;;;;;;;8.48;79.82;100741.87;85988;1291;93300;-59
2022/10/11 05:13:31;;;;;;;16.30;10.20;;;;;;;8.43;79.87;100746.71;85957;1298;80471;-58
2022/10/11 05:15:40;;;;;;;16.40;10.80;;;;;;;8.41;79.96;100750.30;85979;1297;83006;-61
2022/10/11 05:17:48;;;;;;;16.50;11.00;;;;;;;8.40;80.01;100748.41;85948;1298;97132;-59
2022/10/11 05:19:57;;;;;;;17.10;11.40;;;;;;;8.41;80.20;100752.38;85998;1298;88995;-58
2022/10/11 05:22:06;;;;;;;18.80;11.10;;;;;;;8.41;80.24;100752.66;85990;1298;94465;-60
2022/10/11 05:24:15;;;;;;;17.10;11.10;;;;;;;8.43;80.35;100750.89;85851;1298;82621;-59
2022/10/11 05:26:26;;;;;;;19.10;11.50;;;;;;;8.45;80.50;100757.85;86029;1298;83664;-62
2022/10/11 05:28:35;;;;;;;16.00;11.30;;;;;;;8.44;80.60;100756.98;85972;1298;99180;-62
2022/10/11 05:30:45;;;;;;;19.60;11.80;;;;;;;8.46;80.64;100754.83;85994;1290;87543;-59
2022/10/11 05:32:54;;;;;;;18.70;11.10;;;;;;;8.47;80.61;100757.54;86007;1295;94843;-59
2022/10/11 05:35:06;;;;;;;13.40;10.40;;;;;;;8.48;80.65;100758.87;85940;1297;80915;-61
2022/10/11 05:37:17;;;;;;;21.10;12.20;;;;;;;8.54;80.88;100757.52;85940;1298;83120;-61
2022/10/11 05:39:25;;;;;;;18.60;11.90;;;;;;;8.62;80.95;100759.34;85993;1298;100054;-61
2022/10/11 05:41:34;;;;;;;17.50;11.80;;;;;;;8.76;81.22;100761.90;86051;1297;88620;-62
2022/10/11 05:43:44;;;;;;;18.60;12.70;;;;;;;9.08;81.38;100769.32;85996;1293;91992;-61
2022/10/11 05:45:53;;;;;;;18.20;12.80;;;;;;;9.35;81.32;100772.49;86041;1297;81314;-60
2022/10/11 05:48:02;;;;;;;19.70;13.10;;;;;;;9.46;81.17;100767.81;85942;1291;83475;-61
2022/10/11 05:50:13;;;;;;;20.20;12.40;;;;;;;9.50;81.01;100763.56;86019;1298;98833;-60
2022/10/11 05:52:23;;;;;;;18.00;13.20;;;;;;;9.51;80.88;100767.92;85984;1298;86976;-59
2022/10/11 05:54:37;;;;;;;19.10;12.80;;;;;;;9.55;80.90;100765.19;85980;1291;92843;-60
2022/10/11 05:56:47;;;;;;;16.60;12.30;;;;;;;9.61;80.87;100772.24;85983;1298;79030;-60
2022/10/11 05:58:56;;;;;;;17.10;12.60;;;;;;;9.70;80.85;100778.15;85988;1297;82554;-61
2022/10/11 06:01:04;;;;;;;19.20;13.20;;;;;;;9.83;80.99;100784.28;85990;1291;98283;-62
2022/10/11 06:03:15;;;;;;;18.80;12.60;;;;;;;10.04;80.98;100785.57;85959;1291;89817;-61
2022/10/11 06:05:23;;;;;;;16.50;12.50;;;;;;;10.33;80.88;100788.16;85922;1291;95452;-59
2022/10/11 06:07:32;;;;;;;16.30;12.40;;;;;;;10.45;80.85;100793.79;85961;1291;82238;-60
2022/10/11 06:09:42;;;;;;;16.40;12.80;;;;;;;10.59;80.71;100792.48;85954;1291;83315;-59
2022/10/11 06:11:53;;;;;;;20.30;14.20;;;;;;;10.69;80.58;100796.40;85961;1293;99411;-59
2022/10/11 06:14:04;;;;;;;17.10;13.30;;;;;;;10.79;80.47;100798.04;86018;1298;89510;-59
2022/10/11 06:16:13;;;;;;;19.70;13.80;;;;;;;10.91;80.35;100810.11;85974;1297;95436;-59
2022/10/11 06:18:22;;;;;;;19.10;14.10;;;;;;;11.02;80.39;100815.23;85957;1298;80849;-61
2022/10/11 06:20:30;;;;;;;20.70;13.90;;;;;;;11.14;80.15;100817.38;85985;1298;82859;-60
2022/10/11 06:22:40;;;;;;;24.50;13.80;;;;;;;11.28;80.02;100824.51;85969;1297;98171;-59
2022/10/11 06:24:48;;;;;;;24.80;15.80;;;;;;;11.40;79.96;100825.19;86059;1297;87858;-60
2022/10/11 06:26:57;;;;;;;21.60;14.20;;;;;;;11.51;79.71;100828.85;86073;1297;92900;-61
2022/10/11 06:29:07;;;;;;;17.80;13.90;;;;;;;11.65;79.71;100834.27;86044;1291;81856;-62
2022/10/11 06:31:18;;;;;;;22.90;13.60;;;;;;;11.77;79.73;100839.52;86023;1297;83591;-61
2022/10/11 06:33:28;;;;;;;20.20;13.90;;;;;;;11.95;79.73;100842.54;85989;1298;97449;-60
2022/10/11 06:35:36;;;;;;;19.00;14.10;;;;;;;12.19;79.61;100843.48;85839;1293;87418;-61
2022/10/11 06:37:47;;;;;;;18.90;12.70;;;;;;;12.43;79.38;100846.81;85938;1298;95575;-62
2022/10/11 06:39:56;;;;;;;17.60;12.40;;;;;;;12.69;79.13;100846.52;86001;1297;79216;-61
2022/10/11 06:42:06;;;;;;;22.50;13.60;;;;;;;12.91;78.95;100851.43;86003;1298;82449;-61
2022/10/11 06:44:15;;;;;;;17.80;12.50;;;;;;;13.11;78.58;100853.60;85995;1292;97318;-61
2022/10/11 06:46:26;;;;;;;17.90;13.10;;;;;;;13.21;78.45;100861.39;85933;1298;88508;-60
2022/10/11 06:48:42;;;;;;;18.90;13.40;;;;;;;13.32;78.39;100860.41;85837;1300;96663;-60
2022/10/11 06:50:50;;;;;;;16.30;12.50;;;;;;;13.47;78.18;100863.19;86014;1297;79116;-62
2022/10/11 06:53:00;;;;;;;17.20;12.30;;;;;;;13.61;78.04;100867.18;85992;1297;83300;-62
2022/10/11 06:55:11;;;;;;;15.80;11.90;;;;;;;13.76;77.84;100867.39;86028;1297;99755;-60
2022/10/11 06:57:20;;;;;;;19.20;12.00;;;;;;;13.87;77.57;100871.96;86006;1288;88882;-60
2022/10/11 06:59:28;;;;;;;17.20;12.40;;;;;;;13.96;77.22;100873.65;85920;1293;93655;-59
2022/10/11 07:01:37;;;;;;;18.60;11.90;;;;;;;13.98;76.98;100876.92;86007;1298;81056;-61
2022/10/11 07:03:47;;;;;;;17.90;12.90;;;;;;;13.95;76.67;100882.29;85949;1297;81017;-61
2022/10/11 07:05:59;;;;;;;17.80;12.10;;;;;;;13.89;76.55;100883.30;86022;1298;98940;-60
2022/10/11 07:08:08;;;;;;;14.80;11.30;;;;;;;13.80;76.28;100890.27;86038;1291;87115;-61
2022/10/11 07:10:24;;;;;;;19.10;12.70;;;;;;;13.61;76.24;100893.30;85988;1297;93651;-61
2022/10/11 07:12:34;;;;;;;16.10;12.50;;;;;;;13.60;76.28;100898.59;86054;1291;80369;-61
2022/10/11 07:14:43;;;;;;;15.80;12.10;;;;;;;13.65;76.27;100899.79;86027;1298;81779;-62
2022/10/11 07:16:53;;;;;;;15.80;12.20;;;;;;;13.58;76.23;100905.77;85999;1297;97265;-63
2022/10/11 07:19:07;;;;;;;15.50;12.70;;;;;;;13.64;76.15;100905.69;85851;1294;90572;-62
2022/10/11 07:21:17;;;;;;;17.40;12.40;;;;;;;13.67;76.00;100910.04;85967;1291;94160;-60
2022/10/11 07:23:26;;;;;;;14.70;11.70;;;;;;;13.86;76.17;100907.94;85980;1291;80730;-60
2022/10/11 07:25:35;;;;;;;17.10;12.70;;;;;;;14.16;76.05;100909.67;86010;1297;83200;-60
2022/10/11 07:27:44;;;;;;;15.30;12.30;;;;;;;14.58;75.88;100913.73;85994;1295;98967;-60
2022/10/11 07:29:53;;;;;;;14.50;11.20;;;;;;;14.79;75.66;100916.45;85961;1297;88581;-62
2022/10/11 07:32:02;;;;;;;17.70;11.70;;;;;;;14.99;75.05;100919.23;85949;1297;94419;-62
2022/10/11 07:34:11;;;;;;;16.10;12.80;;;;;;;15.15;74.72;100924.41;85983;1291;79713;-61
2022/10/11 07:36:22;;;;;;;13.60;11.30;;;;;;;15.63;74.70;100929.11;85986;1297;83128;-60
2022/10/11 07:38:30;;;;;;;14.50;11.50;;;;;;;16.14;73.99;100934.39;85956;1297;98804;-60
2022/10/11 07:40:46;;;;;;;13.60;11.30;;;;;;;16.29;73.49;100930.88;86027;1297;89260;-62
2022/10/11 07:42:55;;;;;;;13.80;11.10;;;;;;;16.17;73.13;100935.83;85980;1291;93983;-62
2022/10/11 07:45:05;;;;;;;13.40;10.70;;;;;;;16.12;72.79;100938.30;86011;1297;77907;-60
2022/10/11 07:47:15;;;;;;;13.10;11.00;;;;;;;16.00;72.56;100944.10;85978;1295;82473;-61
2022/10/11 07:49:23;;;;;;;14.10;11.90;;;;;;;15.75;72.36;100946.46;85998;1298;96267;-61
2022/10/11 07:51:32;;;;;;;12.40;10.90;;;;;;;15.37;72.47;100949.92;86008;1297;88595;-61
2022/10/11 07:53:46;;;;;;;13.10;11.50;;;;;;;15.18;72.47;100956.45;85861;1300;94721;-60
2022/10/11 07:55:55;;;;;;;15.00;11.20;;;;;;;15.11;72.37;100961.79;85991;1298;80148;-61
2022/10/11 07:58:05;;;;;;;14.80;11.80;;;;;;;14.95;72.42;100966.34;85995;1297;82468;-60
2022/10/11 08:00:16;;;;;;;12.90;10.80;;;;;;;14.79;72.45;100966.58;85960;1300;99085;-59
2022/10/11 08:02:24;;;;;;;14.00;10.90;;;;;;;14.69;72.49;100971.77;86026;1298;87099;-59
2022/10/11 08:04:33;;;;;;;14.30;10.90;;;;;;;14.57;72.55;100970.08;85995;1297;95265;-60
2022/10/11 08:06:42;;;;;;;12.30;11.10;;;;;;;14.56;72.78;100976.77;86017;1298;80033;-62
2022/10/11 08:08:50;;;;;;;15.20;11.30;;;;;;;14.52;72.95;100975.35;86015;1298;83241;-60
2022/10/11 08:11:06;;;;;;;13.50;10.70;;;;;;;14.54;72.92;100977.58;85958;1295;100203;-60
2022/10/11 08:13:18;;;;;;;13.60;10.60;;;;;;;14.57;72.77;100980.95;85987;1284;88505;-60
2022/10/11 08:15:31;;;;;;;14.80;11.50;;;;;;;14.58;72.93;100983.00;85999;1292;93154;-60
2022/10/11 08:17:50;;;;;;;16.50;10.60;;;;;;;14.64;72.89;100984.16;85929;1297;82525;-60
2022/10/11 08:19:58;;;;;;;12.20;10.60;;;;;;;14.69;72.90;100988.67;85946;1298;82787;-60
2022/10/11 08:22:08;;;;;;;15.00;10.10;;;;;;;14.76;72.97;100989.08;85928;1294;98533;-59
2022/10/11 08:24:19;;;;;;;16.70;10.00;;;;;;;14.84;72.85;100991.79;85993;1298;88421;-60
2022/10/11 08:26:29;;;;;;;13.70;9.90;;;;;;;14.94;72.84;100989.02;85978;1297;93969;-59
2022/10/11 08:28:41;;;;;;;13.10;10.00;;;;;;;15.02;72.64;100986.84;86002;1297;78584;-60
2022/10/11 08:30:55;;;;;;;13.50;9.90;;;;;;;15.05;72.65;100986.77;85948;1298;82352;-60
2022/10/11 08:33:04;;;;;;;13.60;10.40;;;;;;;15.31;72.61;100986.98;85919;1291;98804;-60
2022/10/11 08:35:13;;;;;;;13.10;10.20;;;;;;;15.54;72.31;100989.56;86019;1299;88306;-59
2022/10/11 08:37:22;;;;;;;14.70;10.20;;;;;;;15.80;72.18;100988.67;85909;1298;95630;-58
2022/10/11 08:39:31;;;;;;;13.10;9.70;;;;;;;16.00;72.16;100991.23;85965;1294;80201;-59
2022/10/11 08:41:48;;;;;;;10.80;8.80;;;;;;;16.15;71.81;100987.77;86017;1297;81500;-59
2022/10/11 08:44:19;;;;;;;12.00;8.40;;;;;;;16.33;71.60;100989.27;85937;1298;97990;-61
2022/10/11 08:46:33;;;;;;;14.30;9.40;;;;;;;16.49;70.98;100990.12;86042;1297;88384;-60
2022/10/11 08:48:46;;;;;;;11.20;9.30;;;;;;;16.53;70.80;100993.95;86031;1281;92855;-60
2022/10/11 08:50:57;;;;;;;12.80;9.70;;;;;;;16.55;70.39;100996.46;85981;1297;81066;-60
2022/10/11 08:53:15;;;;;;;12.50;9.80;;;;;;;16.66;70.46;100993.46;86020;1297;80774;-60
2022/10/11 08:55:31;;;;;;;11.20;8.70;;;;;;;16.75;70.25;100998.51;86033;1298;98872;-60
2022/10/11 08:57:42;;;;;;;12.00;8.80;;;;;;;16.89;70.10;100997.79;85947;1299;88315;-60
2022/10/11 08:59:57;;;;;;;11.30;8.70;;;;;;;16.83;69.82;101002.80;85641;1292;465195;-61
2022/10/11 09:02:22;;;;;;;12.10;8.10;;;;;;;16.71;69.95;101003.60;86012;1291;80030;-61
2022/10/11 09:04:32;;;;;;;10.20;7.90;;;;;;;16.71;69.60;101001.25;86018;1292;80876;-61
2022/10/11 09:06:51;;;;;;;10.60;7.60;;;;;;;16.69;69.20;101004.31;86003;1298;99508;-61
2022/10/11 09:09:22;;;;;;;11.70;8.30;;;;;;;16.63;69.02;101007.90;85969;1298;88394;-61
2022/10/11 09:11:47;;;;;;;9.50;8.00;;;;;;;16.53;68.96;101010.90;85932;1298;94252;-61
2022/10/11 09:14:21;;;;;;;11.30;7.60;;;;;;;16.36;69.03;101009.40;85950;1297;80788;-61
2022/10/11 09:16:47;;;;;;;12.20;8.40;;;;;;;16.29;68.71;101011.86;85981;1299;82914;-60
2022/10/11 09:19:30;;;;;;;9.80;7.70;;;;;;;16.31;68.92;101014.10;85944;1300;99290;-61
2022/10/11 09:21:48;;;;;;;11.60;7.20;;;;;;;16.35;68.83;101015.57;85942;1298;88117;-60
2022/10/11 09:24:33;;;;;;;8.90;6.90;;;;;;;16.39;68.70;101017.99;85973;1290;93494;-59
2022/10/11 09:26:54;;;;;;;10.20;6.80;;;;;;;16.41;68.45;101022.32;85954;1297;79418;-59
2022/10/11 09:29:11;;;;;;;11.80;7.20;;;;;;;16.42;68.21;101022.23;85960;1301;81226;-59
2022/10/11 09:31:22;;;;;;;7.90;6.50;;;;;;;16.36;68.25;101023.23;86008;1298;99836;-61
2022/10/11 09:33:40;;;;;;;8.10;6.00;;;;;;;16.34;68.17;101023.13;86013;1297;87927;-61
2022/10/11 09:35:52;;;;;;;9.50;6.20;;;;;;;16.27;68.00;101026.13;85979;1302;95365;-60
2022/10/11 09:38:11;;;;;;;8.50;5.90;;;;;;;16.08;67.88;101027.79;85968;1300;78339;-60
2022/10/11 09:40:45;;;;;;;7.30;6.10;;;;;;;15.83;68.12;101030.05;86001;1301;82747;-60
2022/10/11 09:42:58;;;;;;;8.30;5.50;;;;;;;15.88;68.28;101029.05;85986;1300;99018;-59
2022/10/11 09:45:17;;;;;;;8.10;5.10;;;;;;;15.93;68.26;101025.86;85958;1296;86963;-60
2022/10/11 09:47:33;;;;;;;11.20;6.10;;;;;;;16.00;68.42;101033.54;85962;1297;95389;-60
2022/10/11 09:49:48;;;;;;;9.10;5.90;;;;;;;16.12;68.28;101036.39;85929;1300;79560;-60
2022/10/11 09:52:00;;;;;;;6.30;4.90;;;;;;;16.08;67.92;101038.61;85988;1294;83018;-60
2022/10/11 09:54:11;;;;;;;8.00;4.40;;;;;;;16.03;67.92;101038.27;85958;1296;100130;-60
2022/10/11 09:56:22;;;;;;;8.60;4.90;;;;;;;16.09;67.94;101040.70;85968;1302;86919;-60
2022/10/11 09:58:34;;;;;;;5.00;4.20;;;;;;;16.23;68.10;101039.83;85952;1297;95597;-60
2022/10/11 10:00:42;;;;;;;9.90;4.40;;;;;;;16.43;68.26;101042.23;85978;1297;79556;-60
2022/10/11 10:02:53;;;;;;;9.40;4.60;;;;;;;16.54;67.91;101046.95;85952;1302;83391;-60
2022/10/11 10:05:18;;;;;;;7.00;3.70;;;;;;;16.35;67.43;101049.42;85967;1302;99029;-60
2022/10/11 10:07:29;;;;;;;5.50;3.90;;;;;;;16.12;67.20;101048.76;85978;1297;89581;-61
2022/10/11 10:09:37;;;;;;;7.30;4.00;;;;;;;15.92;67.18;101052.56;85990;1300;93488;-61
2022/10/11 10:11:48;;;;;;;6.30;3.70;;;;;;;15.93;67.14;101052.94;85980;1291;80838;-60